sensor_id;sensor_type;location;lat;lon;timestamp;pressure;altitude;pressure_sealevel;temperature;humidity
50933;BME280;36921;49.006;9.292;2023-02-04T00:02:21;100024.00;;;7.20;100.00
50933;BME280;36921;49.006;9.292;2023-02-04T00:04:47;100027.28;;;7.14;100.00
50933;BME280;36921;49.006;9.292;2023-02-04T00:07:12;100029.75;;;7.08;100.00
50933;BME280;36921;49.006;9.292;2023-02-04T00:09:38;100033.00;;;7.01;100.00
50933;BME280;36921;49.006;9.292;2023-02-04T00:12:09;100026.00;;;6.91;100.00
50933;BME280;36921;49.006;9.292;2023-02-04T00:14:34;100029.81;;;6.88;100.00
50933;BME280;36921;49.006;9.292;2023-02-04T00:17:00;100035.66;;;6.84;100.00
50933;BME280;36921;49.006;9.292;2023-02-04T00:19:25;100052.56;;;6.76;100.00
50933;BME280;36921;49.006;9.292;2023-02-04T00:21:51;100049.28;;;6.72;100.00
50933;BME280;36921;49.006;9.292;2023-02-04T00:24:16;100051.44;;;6.69;100.00
50933;BME280;36921;49.006;9.292;2023-02-04T00:26:41;100059.66;;;6.67;100.00
50933;BME280;36921;49.006;9.292;2023-02-04T00:29:06;100048.19;;;6.65;100.00
50933;BME280;36921;49.006;9.292;2023-02-04T00:31:32;100054.56;;;6.64;100.00
50933;BME280;36921;49.006;9.292;2023-02-04T00:33:57;100054.03;;;6.61;100.00
50933;BME280;36921;49.006;9.292;2023-02-04T00:36:23;100056.56;;;6.62;100.00
50933;BME280;36921;49.006;9.292;2023-02-04T00:38:49;100064.91;;;6.59;100.00
50933;BME280;36921;49.006;9.292;2023-02-04T00:41:14;100070.00;;;6.62;100.00
50933;BME280;36921;49.006;9.292;2023-02-04T00:43:39;100066.75;;;6.58;100.00
50933;BME280;36921;49.006;9.292;2023-02-04T00:46:05;100063.22;;;6.58;100.00
50933;BME280;36921;49.006;9.292;2023-02-04T00:48:30;100074.66;;;6.60;100.00
50933;BME280;36921;49.006;9.292;2023-02-04T00:50:55;100071.00;;;6.61;100.00
50933;BME280;36921;49.006;9.292;2023-02-04T00:53:21;100068.31;;;6.61;100.00
50933;BME280;36921;49.006;9.292;2023-02-04T00:55:46;100070.28;;;6.59;100.00
50933;BME280;36921;49.006;9.292;2023-02-04T00:58:12;100061.38;;;6.58;100.00
50933;BME280;36921;49.006;9.292;2023-02-04T01:00:37;100068.31;;;6.61;100.00
50933;BME280;36921;49.006;9.292;2023-02-04T01:03:02;100061.94;;;6.62;100.00
50933;BME280;36921;49.006;9.292;2023-02-04T01:05:28;100062.78;;;6.63;100.00
50933;BME280;36921;49.006;9.292;2023-02-04T01:07:53;100061.09;;;6.62;100.00
50933;BME280;36921;49.006;9.292;2023-02-04T01:10:19;100053.84;;;6.62;100.00
50933;BME280;36921;49.006;9.292;2023-02-04T01:12:44;100045.78;;;6.62;100.00
50933;BME280;36921;49.006;9.292;2023-02-04T01:15:10;100054.88;;;6.61;100.00
50933;BME280;36921;49.006;9.292;2023-02-04T01:17:35;100061.09;;;6.62;100.00
50933;BME280;36921;49.006;9.292;2023-02-04T01:20:01;100072.84;;;6.61;100.00
50933;BME280;36921;49.006;9.292;2023-02-04T01:22:26;100070.44;;;6.57;100.00
50933;BME280;36921;49.006;9.292;2023-02-04T01:24:51;100075.81;;;6.57;100.00
50933;BME280;36921;49.006;9.292;2023-02-04T01:27:17;100065.91;;;6.58;100.00
50933;BME280;36921;49.006;9.292;2023-02-04T01:29:42;100076.09;;;6.64;100.00
50933;BME280;36921;49.006;9.292;2023-02-04T01:32:07;100073.09;;;6.67;100.00
50933;BME280;36921;49.006;9.292;2023-02-04T01:34:33;100081.72;;;6.71;100.00
50933;BME280;36921;49.006;9.292;2023-02-04T01:36:58;100079.19;;;6.69;100.00
50933;BME280;36921;49.006;9.292;2023-02-04T01:39:24;100083.97;;;6.75;100.00
50933;BME280;36921;49.006;9.292;2023-02-04T01:41:49;100081.44;;;6.74;100.00
50933;BME280;36921;49.006;9.292;2023-02-04T01:44:15;100085.69;;;6.76;100.00
50933;BME280;36921;49.006;9.292;2023-02-04T01:46:40;100087.06;;;6.80;100.00
50933;BME280;36921;49.006;9.292;2023-02-04T01:49:06;100093.44;;;6.79;100.00
50933;BME280;36921;49.006;9.292;2023-02-04T01:51:31;100091.47;;;6.82;100.00
50933;BME280;36921;49.006;9.292;2023-02-04T01:53:58;100106.59;;;6.83;100.00
50933;BME280;36921;49.006;9.292;2023-02-04T01:56:26;100097.50;;;6.84;100.00
50933;BME280;36921;49.006;9.292;2023-02-04T01:58:53;100104.91;;;6.82;100.00
50933;BME280;36921;49.006;9.292;2023-02-04T02:03:58;100114.53;;;6.84;100.00
50933;BME280;36921;49.006;9.292;2023-02-04T02:06:24;100115.66;;;6.82;100.00
50933;BME280;36921;49.006;9.292;2023-02-04T02:08:49;100111.97;;;6.83;100.00
50933;BME280;36921;49.006;9.292;2023-02-04T02:11:15;100109.81;;;6.86;100.00
50933;BME280;36921;49.006;9.292;2023-02-04T02:13:40;100106.47;;;6.84;100.00
50933;BME280;36921;49.006;9.292;2023-02-04T02:16:06;100108.28;;;6.84;100.00
50933;BME280;36921;49.006;9.292;2023-02-04T02:18:31;100116.81;;;6.79;100.00
50933;BME280;36921;49.006;9.292;2023-02-04T02:20:59;100121.47;;;6.77;100.00
50933;BME280;36921;49.006;9.292;2023-02-04T02:23:57;100125.31;;;6.74;100.00
50933;BME280;36921;49.006;9.292;2023-02-04T02:26:25;100118.09;;;6.75;100.00
50933;BME280;36921;49.006;9.292;2023-02-04T02:28:50;100108.63;;;6.71;100.00
50933;BME280;36921;49.006;9.292;2023-02-04T02:31:19;100107.50;;;6.73;100.00
50933;BME280;36921;49.006;9.292;2023-02-04T02:33:45;100104.81;;;6.73;100.00
50933;BME280;36921;49.006;9.292;2023-02-04T02:36:11;100110.59;;;6.69;100.00
50933;BME280;36921;49.006;9.292;2023-02-04T02:38:37;100115.41;;;6.65;100.00
50933;BME280;36921;49.006;9.292;2023-02-04T02:41:03;100116.97;;;6.68;100.00
50933;BME280;36921;49.006;9.292;2023-02-04T02:43:29;100123.66;;;6.64;100.00
50933;BME280;36921;49.006;9.292;2023-02-04T02:45:57;100118.56;;;6.61;100.00
50933;BME280;36921;49.006;9.292;2023-02-04T02:48:24;100119.81;;;6.66;100.00
50933;BME280;36921;49.006;9.292;2023-02-04T02:50:49;100120.53;;;6.68;100.00
50933;BME280;36921;49.006;9.292;2023-02-04T02:53:17;100114.03;;;6.61;100.00
50933;BME280;36921;49.006;9.292;2023-02-04T02:55:44;100120.25;;;6.62;100.00
50933;BME280;36921;49.006;9.292;2023-02-04T02:58:31;100119.09;;;6.64;100.00
50933;BME280;36921;49.006;9.292;2023-02-04T03:01:00;100123.78;;;6.62;100.00
50933;BME280;36921;49.006;9.292;2023-02-04T03:03:29;100130.16;;;6.61;100.00
50933;BME280;36921;49.006;9.292;2023-02-04T03:05:59;100131.31;;;6.58;100.00
50933;BME280;36921;49.006;9.292;2023-02-04T03:08:26;100129.03;;;6.54;100.00
50933;BME280;36921;49.006;9.292;2023-02-04T03:10:52;100130.47;;;6.48;100.00
50933;BME280;36921;49.006;9.292;2023-02-04T03:13:18;100138.25;;;6.51;100.00
50933;BME280;36921;49.006;9.292;2023-02-04T03:15:46;100151.13;;;6.48;100.00
50933;BME280;36921;49.006;9.292;2023-02-04T03:18:14;100154.78;;;6.47;100.00
50933;BME280;36921;49.006;9.292;2023-02-04T03:20:40;100159.91;;;6.50;100.00
50933;BME280;36921;49.006;9.292;2023-02-04T03:23:06;100166.69;;;6.44;100.00
50933;BME280;36921;49.006;9.292;2023-02-04T03:25:32;100168.09;;;6.39;100.00
50933;BME280;36921;49.006;9.292;2023-02-04T03:27:58;100163.75;;;6.38;100.00
50933;BME280;36921;49.006;9.292;2023-02-04T03:30:24;100177.59;;;6.33;100.00
50933;BME280;36921;49.006;9.292;2023-02-04T03:32:50;100179.44;;;6.32;100.00
50933;BME280;36921;49.006;9.292;2023-02-04T03:35:16;100179.44;;;6.42;100.00
50933;BME280;36921;49.006;9.292;2023-02-04T03:37:42;100174.19;;;6.41;100.00
50933;BME280;36921;49.006;9.292;2023-02-04T03:40:08;100180.84;;;6.36;100.00
50933;BME280;36921;49.006;9.292;2023-02-04T03:42:35;100186.38;;;6.25;100.00
50933;BME280;36921;49.006;9.292;2023-02-04T03:45:00;100191.72;;;6.15;100.00
50933;BME280;36921;49.006;9.292;2023-02-04T03:47:26;100200.66;;;6.16;100.00
50933;BME280;36921;49.006;9.292;2023-02-04T03:49:51;100208.97;;;6.13;100.00
50933;BME280;36921;49.006;9.292;2023-02-04T03:52:17;100214.22;;;6.05;100.00
50933;BME280;36921;49.006;9.292;2023-02-04T03:54:42;100225.25;;;6.02;100.00
50933;BME280;36921;49.006;9.292;2023-02-04T03:57:07;100233.59;;;5.99;100.00
50933;BME280;36921;49.006;9.292;2023-02-04T03:59:34;100237.78;;;5.91;100.00
50933;BME280;36921;49.006;9.292;2023-02-04T04:01:59;100242.97;;;5.83;100.00
50933;BME280;36921;49.006;9.292;2023-02-04T04:04:24;100240.56;;;5.80;100.00
50933;BME280;36921;49.006;9.292;2023-02-04T04:06:50;100230.56;;;5.82;100.00
50933;BME280;36921;49.006;9.292;2023-02-04T04:09:15;100226.88;;;5.83;100.00
50933;BME280;36921;49.006;9.292;2023-02-04T04:11:40;100233.81;;;5.86;100.00
50933;BME280;36921;49.006;9.292;2023-02-04T04:14:06;100227.88;;;5.82;100.00
50933;BME280;36921;49.006;9.292;2023-02-04T04:16:31;100231.09;;;5.76;100.00
50933;BME280;36921;49.006;9.292;2023-02-04T04:18:57;100241.66;;;5.68;100.00
50933;BME280;36921;49.006;9.292;2023-02-04T04:21:22;100243.66;;;5.66;100.00
50933;BME280;36921;49.006;9.292;2023-02-04T04:23:47;100249.94;;;5.55;100.00
50933;BME280;36921;49.006;9.292;2023-02-04T04:26:13;100255.59;;;5.52;100.00
50933;BME280;36921;49.006;9.292;2023-02-04T04:28:38;100255.75;;;5.51;100.00
50933;BME280;36921;49.006;9.292;2023-02-04T04:31:03;100259.94;;;5.43;100.00
50933;BME280;36921;49.006;9.292;2023-02-04T04:33:29;100272.78;;;5.40;100.00
50933;BME280;36921;49.006;9.292;2023-02-04T04:35:55;100266.72;;;5.38;100.00
50933;BME280;36921;49.006;9.292;2023-02-04T04:38:21;100285.78;;;5.35;100.00
50933;BME280;36921;49.006;9.292;2023-02-04T04:40:46;100286.00;;;5.32;100.00
50933;BME280;36921;49.006;9.292;2023-02-04T04:43:12;100289.03;;;5.38;100.00
50933;BME280;36921;49.006;9.292;2023-02-04T04:45:37;100282.66;;;5.39;100.00
50933;BME280;36921;49.006;9.292;2023-02-04T04:48:03;100305.00;;;5.40;100.00
50933;BME280;36921;49.006;9.292;2023-02-04T04:50:28;100299.94;;;5.46;100.00
50933;BME280;36921;49.006;9.292;2023-02-04T04:52:53;100294.91;;;5.53;100.00
50933;BME280;36921;49.006;9.292;2023-02-04T04:55:19;100287.69;;;5.54;100.00
50933;BME280;36921;49.006;9.292;2023-02-04T04:57:44;100297.81;;;5.50;100.00
50933;BME280;36921;49.006;9.292;2023-02-04T05:00:14;100292.59;;;5.48;100.00
50933;BME280;36921;49.006;9.292;2023-02-04T05:02:41;100291.16;;;5.44;100.00
50933;BME280;36921;49.006;9.292;2023-02-04T05:05:07;100288.03;;;5.39;100.00
50933;BME280;36921;49.006;9.292;2023-02-04T05:07:33;100285.88;;;5.33;100.00
50933;BME280;36921;49.006;9.292;2023-02-04T05:09:58;100285.16;;;5.31;100.00
50933;BME280;36921;49.006;9.292;2023-02-04T05:12:23;100282.75;;;5.28;100.00
50933;BME280;36921;49.006;9.292;2023-02-04T05:14:49;100287.38;;;5.26;100.00
50933;BME280;36921;49.006;9.292;2023-02-04T05:17:14;100291.38;;;5.32;100.00
50933;BME280;36921;49.006;9.292;2023-02-04T05:19:40;100299.84;;;5.27;100.00
50933;BME280;36921;49.006;9.292;2023-02-04T05:22:05;100291.06;;;5.25;100.00
50933;BME280;36921;49.006;9.292;2023-02-04T05:24:30;100294.03;;;5.22;100.00
50933;BME280;36921;49.006;9.292;2023-02-04T05:26:56;100301.81;;;5.25;100.00
50933;BME280;36921;49.006;9.292;2023-02-04T05:29:21;100302.53;;;5.27;100.00
50933;BME280;36921;49.006;9.292;2023-02-04T05:31:46;100306.19;;;5.26;100.00
50933;BME280;36921;49.006;9.292;2023-02-04T05:34:12;100309.13;;;5.23;100.00
50933;BME280;36921;49.006;9.292;2023-02-04T05:36:37;100307.09;;;5.15;100.00
50933;BME280;36921;49.006;9.292;2023-02-04T05:39:02;100311.16;;;5.10;100.00
50933;BME280;36921;49.006;9.292;2023-02-04T05:41:28;100307.44;;;5.01;100.00
50933;BME280;36921;49.006;9.292;2023-02-04T05:43:53;100305.03;;;4.98;100.00
50933;BME280;36921;49.006;9.292;2023-02-04T05:46:18;100303.56;;;4.94;100.00
50933;BME280;36921;49.006;9.292;2023-02-04T05:48:44;100292.50;;;4.87;100.00
50933;BME280;36921;49.006;9.292;2023-02-04T05:51:09;100309.31;;;4.89;100.00
50933;BME280;36921;49.006;9.292;2023-02-04T05:53:34;100318.09;;;4.91;100.00
50933;BME280;36921;49.006;9.292;2023-02-04T05:56:00;100324.19;;;4.93;100.00
50933;BME280;36921;49.006;9.292;2023-02-04T05:58:25;100308.09;;;4.93;100.00
50933;BME280;36921;49.006;9.292;2023-02-04T06:00:58;100318.28;;;4.99;100.00
50933;BME280;36921;49.006;9.292;2023-02-04T06:03:23;100314.31;;;4.94;100.00
50933;BME280;36921;49.006;9.292;2023-02-04T06:05:48;100329.28;;;4.96;100.00
50933;BME280;36921;49.006;9.292;2023-02-04T06:08:13;100345.13;;;4.99;100.00
50933;BME280;36921;49.006;9.292;2023-02-04T06:10:40;100332.69;;;4.98;100.00
50933;BME280;36921;49.006;9.292;2023-02-04T06:13:05;100349.69;;;4.88;100.00
50933;BME280;36921;49.006;9.292;2023-02-04T06:15:30;100337.34;;;4.64;100.00
50933;BME280;36921;49.006;9.292;2023-02-04T06:17:55;100347.63;;;4.59;100.00
50933;BME280;36921;49.006;9.292;2023-02-04T06:20:22;100339.00;;;4.44;100.00
50933;BME280;36921;49.006;9.292;2023-02-04T06:22:47;100367.75;;;4.42;100.00
50933;BME280;36921;49.006;9.292;2023-02-04T06:25:16;100348.19;;;4.19;100.00
50933;BME280;36921;49.006;9.292;2023-02-04T06:27:41;100354.19;;;4.11;100.00
50933;BME280;36921;49.006;9.292;2023-02-04T06:30:07;100372.31;;;4.08;100.00
50933;BME280;36921;49.006;9.292;2023-02-04T06:32:32;100385.09;;;4.04;100.00
50933;BME280;36921;49.006;9.292;2023-02-04T06:34:58;100379.38;;;3.98;100.00
50933;BME280;36921;49.006;9.292;2023-02-04T06:37:23;100385.56;;;3.98;100.00
50933;BME280;36921;49.006;9.292;2023-02-04T06:39:48;100367.31;;;3.92;100.00
50933;BME280;36921;49.006;9.292;2023-02-04T06:42:13;100372.81;;;3.90;100.00
50933;BME280;36921;49.006;9.292;2023-02-04T06:44:39;100392.16;;;4.05;100.00
50933;BME280;36921;49.006;9.292;2023-02-04T06:47:04;100389.94;;;4.10;100.00
50933;BME280;36921;49.006;9.292;2023-02-04T06:49:29;100404.94;;;4.13;100.00
50933;BME280;36921;49.006;9.292;2023-02-04T06:51:55;100414.91;;;4.22;100.00
50933;BME280;36921;49.006;9.292;2023-02-04T06:54:20;100378.75;;;4.16;100.00
50933;BME280;36921;49.006;9.292;2023-02-04T06:56:45;100397.84;;;4.34;100.00
50933;BME280;36921;49.006;9.292;2023-02-04T06:59:11;100400.88;;;4.41;100.00
50933;BME280;36921;49.006;9.292;2023-02-04T07:01:36;100392.59;;;4.44;100.00
50933;BME280;36921;49.006;9.292;2023-02-04T07:04:02;100398.22;;;4.41;100.00
50933;BME280;36921;49.006;9.292;2023-02-04T07:06:27;100396.38;;;4.42;100.00
50933;BME280;36921;49.006;9.292;2023-02-04T07:08:52;100403.19;;;4.46;100.00
50933;BME280;36921;49.006;9.292;2023-02-04T07:11:18;100407.81;;;4.44;100.00
50933;BME280;36921;49.006;9.292;2023-02-04T07:13:43;100424.97;;;4.52;100.00
50933;BME280;36921;49.006;9.292;2023-02-04T07:16:08;100426.19;;;4.59;100.00
50933;BME280;36921;49.006;9.292;2023-02-04T07:18:34;100431.03;;;4.66;100.00
50933;BME280;36921;49.006;9.292;2023-02-04T07:20:59;100451.34;;;4.91;100.00
50933;BME280;36921;49.006;9.292;2023-02-04T07:23:24;100442.88;;;5.07;100.00
50933;BME280;36921;49.006;9.292;2023-02-04T07:25:52;100435.56;;;5.09;100.00
50933;BME280;36921;49.006;9.292;2023-02-04T07:28:18;100449.19;;;5.17;100.00
50933;BME280;36921;49.006;9.292;2023-02-04T07:30:43;100440.41;;;5.15;100.00
50933;BME280;36921;49.006;9.292;2023-02-04T07:33:09;100431.88;;;5.10;100.00
50933;BME280;36921;49.006;9.292;2023-02-04T07:35:34;100434.63;;;4.98;100.00
50933;BME280;36921;49.006;9.292;2023-02-04T07:37:59;100449.72;;;4.99;100.00
50933;BME280;36921;49.006;9.292;2023-02-04T07:40:25;100437.09;;;4.90;100.00
50933;BME280;36921;49.006;9.292;2023-02-04T07:42:50;100434.41;;;4.90;100.00
50933;BME280;36921;49.006;9.292;2023-02-04T07:45:15;100445.00;;;4.92;100.00
50933;BME280;36921;49.006;9.292;2023-02-04T07:47:41;100450.03;;;4.85;100.00
50933;BME280;36921;49.006;9.292;2023-02-04T07:50:18;100449.75;;;4.88;100.00
50933;BME280;36921;49.006;9.292;2023-02-04T07:52:43;100462.91;;;4.91;100.00
50933;BME280;36921;49.006;9.292;2023-02-04T07:55:09;100460.13;;;4.81;100.00
50933;BME280;36921;49.006;9.292;2023-02-04T07:57:34;100473.78;;;4.78;100.00
50933;BME280;36921;49.006;9.292;2023-02-04T08:03:21;100486.94;;;4.81;100.00
50933;BME280;36921;49.006;9.292;2023-02-04T08:05:46;100482.69;;;4.79;100.00
50933;BME280;36921;49.006;9.292;2023-02-04T08:08:12;100469.16;;;4.80;100.00
50933;BME280;36921;49.006;9.292;2023-02-04T08:10:37;100491.63;;;5.12;100.00
50933;BME280;36921;49.006;9.292;2023-02-04T08:16:29;100460.34;;;5.01;100.00
50933;BME280;36921;49.006;9.292;2023-02-04T08:18:57;100433.31;;;4.81;100.00
50933;BME280;36921;49.006;9.292;2023-02-04T08:21:22;100439.03;;;4.88;100.00
50933;BME280;36921;49.006;9.292;2023-02-04T08:23:47;100491.31;;;5.26;100.00
50933;BME280;36921;49.006;9.292;2023-02-04T08:26:13;100511.78;;;5.38;100.00
50933;BME280;36921;49.006;9.292;2023-02-04T08:28:38;100506.72;;;5.24;100.00
50933;BME280;36921;49.006;9.292;2023-02-04T08:34:26;100497.59;;;4.72;100.00
50933;BME280;36921;49.006;9.292;2023-02-04T08:37:27;100436.22;;;4.12;100.00
50933;BME280;36921;49.006;9.292;2023-02-04T08:39:52;100463.59;;;4.16;100.00
50933;BME280;36921;49.006;9.292;2023-02-04T08:42:23;100415.53;;;3.81;100.00
50933;BME280;36921;49.006;9.292;2023-02-04T08:44:59;100421.13;;;4.00;100.00
50933;BME280;36921;49.006;9.292;2023-02-04T08:47:26;100515.63;;;4.70;100.00
50933;BME280;36921;49.006;9.292;2023-02-04T08:49:51;100529.00;;;4.81;100.00
50933;BME280;36921;49.006;9.292;2023-02-04T08:52:16;100522.91;;;4.79;100.00
50933;BME280;36921;49.006;9.292;2023-02-04T08:54:43;100543.13;;;4.94;100.00
50933;BME280;36921;49.006;9.292;2023-02-04T08:57:08;100525.44;;;4.92;100.00
50933;BME280;36921;49.006;9.292;2023-02-04T08:59:33;100537.34;;;5.10;100.00
50933;BME280;36921;49.006;9.292;2023-02-04T09:01:59;100507.94;;;5.20;100.00
50933;BME280;36921;49.006;9.292;2023-02-04T09:04:24;100508.41;;;5.57;100.00
50933;BME280;36921;49.006;9.292;2023-02-04T09:06:50;100524.88;;;6.27;100.00
50933;BME280;36921;49.006;9.292;2023-02-04T09:09:15;100522.91;;;6.59;100.00
50933;BME280;36921;49.006;9.292;2023-02-04T09:11:41;100502.44;;;6.68;100.00
50933;BME280;36921;49.006;9.292;2023-02-04T09:14:07;100522.22;;;6.67;100.00
50933;BME280;36921;49.006;9.292;2023-02-04T09:16:33;100510.34;;;6.39;100.00
50933;BME280;36921;49.006;9.292;2023-02-04T09:18:58;100540.34;;;6.65;100.00
50933;BME280;36921;49.006;9.292;2023-02-04T09:21:24;100533.19;;;6.85;100.00
50933;BME280;36921;49.006;9.292;2023-02-04T09:23:50;100514.84;;;6.29;100.00
50933;BME280;36921;49.006;9.292;2023-02-04T09:26:15;100527.16;;;6.62;100.00
50933;BME280;36921;49.006;9.292;2023-02-04T09:28:41;100555.09;;;6.71;100.00
50933;BME280;36921;49.006;9.292;2023-02-04T09:31:06;100550.41;;;6.63;100.00
50933;BME280;36921;49.006;9.292;2023-02-04T09:33:38;100555.66;;;6.74;100.00
50933;BME280;36921;49.006;9.292;2023-02-04T09:36:03;100551.03;;;6.86;100.00
50933;BME280;36921;49.006;9.292;2023-02-04T09:38:29;100563.59;;;7.16;100.00
50933;BME280;36921;49.006;9.292;2023-02-04T09:41:06;100553.81;;;7.25;100.00
50933;BME280;36921;49.006;9.292;2023-02-04T09:43:43;100570.81;;;7.25;100.00
50933;BME280;36921;49.006;9.292;2023-02-04T09:46:21;100558.25;;;7.26;100.00
50933;BME280;36921;49.006;9.292;2023-02-04T09:49:23;100567.19;;;7.46;100.00
50933;BME280;36921;49.006;9.292;2023-02-04T09:52:22;100550.47;;;7.42;100.00
50933;BME280;36921;49.006;9.292;2023-02-04T09:54:49;100565.22;;;7.58;100.00
50933;BME280;36921;49.006;9.292;2023-02-04T09:57:18;100580.53;;;7.57;100.00
50933;BME280;36921;49.006;9.292;2023-02-04T09:59:44;100578.53;;;7.50;100.00
50933;BME280;36921;49.006;9.292;2023-02-04T10:04:41;100578.13;;;8.12;100.00
50933;BME280;36921;49.006;9.292;2023-02-04T10:07:11;100565.28;;;8.34;100.00
50933;BME280;36921;49.006;9.292;2023-02-04T10:09:38;100565.03;;;8.74;100.00
50933;BME280;36921;49.006;9.292;2023-02-04T10:12:05;100542.28;;;8.49;100.00
50933;BME280;36921;49.006;9.292;2023-02-04T10:14:30;100577.38;;;8.77;100.00
50933;BME280;36921;49.006;9.292;2023-02-04T10:16:57;100562.41;;;8.92;100.00
50933;BME280;36921;49.006;9.292;2023-02-04T10:19:24;100561.06;;;8.78;100.00
50933;BME280;36921;49.006;9.292;2023-02-04T10:21:51;100556.34;;;9.08;100.00
50933;BME280;36921;49.006;9.292;2023-02-04T10:24:21;100561.00;;;9.43;100.00
50933;BME280;36921;49.006;9.292;2023-02-04T10:26:50;100560.06;;;9.53;100.00
50933;BME280;36921;49.006;9.292;2023-02-04T10:29:21;100568.59;;;10.20;100.00
50933;BME280;36921;49.006;9.292;2023-02-04T10:31:50;100547.19;;;10.52;100.00
50933;BME280;36921;49.006;9.292;2023-02-04T10:34:20;100558.06;;;10.95;100.00
50933;BME280;36921;49.006;9.292;2023-02-04T10:36:48;100563.34;;;11.55;100.00
50933;BME280;36921;49.006;9.292;2023-02-04T10:39:28;100547.59;;;13.67;100.00
50933;BME280;36921;49.006;9.292;2023-02-04T10:41:56;100553.66;;;16.56;72.65
50933;BME280;36921;49.006;9.292;2023-02-04T10:44:27;100553.78;;;17.59;67.38
50933;BME280;36921;49.006;9.292;2023-02-04T10:47:12;100547.13;;;18.68;59.32
50933;BME280;36921;49.006;9.292;2023-02-04T10:49:39;100537.31;;;20.71;53.65
50933;BME280;36921;49.006;9.292;2023-02-04T10:52:14;100539.84;;;21.88;48.17
50933;BME280;36921;49.006;9.292;2023-02-04T10:54:40;100544.75;;;20.13;48.33
50933;BME280;36921;49.006;9.292;2023-02-04T10:57:24;100553.59;;;17.74;53.91
50933;BME280;36921;49.006;9.292;2023-02-04T10:59:53;100560.47;;;15.53;61.55
50933;BME280;36921;49.006;9.292;2023-02-04T11:02:30;100565.16;;;15.59;63.97
50933;BME280;36921;49.006;9.292;2023-02-04T11:04:56;100564.53;;;14.91;68.12
50933;BME280;36921;49.006;9.292;2023-02-04T11:07:21;100562.94;;;13.83;78.75
50933;BME280;36921;49.006;9.292;2023-02-04T11:09:47;100559.28;;;13.13;92.99
50933;BME280;36921;49.006;9.292;2023-02-04T11:15:03;100558.88;;;14.78;76.53
50933;BME280;36921;49.006;9.292;2023-02-04T11:17:30;100554.41;;;15.21;72.61
50933;BME280;36921;49.006;9.292;2023-02-04T11:19:57;100544.69;;;14.97;68.17
50933;BME280;36921;49.006;9.292;2023-02-04T11:22:40;100541.25;;;14.51;65.35
50933;BME280;36921;49.006;9.292;2023-02-04T11:25:35;100546.88;;;13.50;69.49
50933;BME280;36921;49.006;9.292;2023-02-04T11:28:23;100551.38;;;12.32;80.19
50933;BME280;36921;49.006;9.292;2023-02-04T11:31:00;100548.56;;;11.33;100.00
50933;BME280;36921;49.006;9.292;2023-02-04T11:33:37;100560.25;;;10.91;100.00
50933;BME280;36921;49.006;9.292;2023-02-04T11:36:04;100557.66;;;10.47;100.00
50933;BME280;36921;49.006;9.292;2023-02-04T11:38:31;100556.28;;;10.25;100.00
50933;BME280;36921;49.006;9.292;2023-02-04T11:40:57;100561.00;;;10.23;100.00
50933;BME280;36921;49.006;9.292;2023-02-04T11:43:24;100563.84;;;10.66;100.00
50933;BME280;36921;49.006;9.292;2023-02-04T11:46:11;100548.88;;;11.22;100.00
50933;BME280;36921;49.006;9.292;2023-02-04T11:48:38;100548.16;;;12.03;100.00
50933;BME280;36921;49.006;9.292;2023-02-04T11:51:11;100540.31;;;12.41;100.00
50933;BME280;36921;49.006;9.292;2023-02-04T11:53:36;100536.63;;;12.90;91.11
50933;BME280;36921;49.006;9.292;2023-02-04T11:56:02;100550.06;;;12.75;90.84
50933;BME280;36921;49.006;9.292;2023-02-04T11:58:28;100554.28;;;13.56;81.68
50933;BME280;36921;49.006;9.292;2023-02-04T12:00:55;100550.31;;;14.13;76.77
50933;BME280;36921;49.006;9.292;2023-02-04T12:03:27;100556.66;;;14.06;77.19
50933;BME280;36921;49.006;9.292;2023-02-04T12:05:54;100556.53;;;13.53;81.09
50933;BME280;36921;49.006;9.292;2023-02-04T12:13:28;100567.25;;;13.07;83.45
50933;BME280;36921;49.006;9.292;2023-02-04T12:16:00;100564.09;;;12.95;83.10
50933;BME280;36921;49.006;9.292;2023-02-04T12:18:27;100556.00;;;12.70;87.55
50933;BME280;36921;49.006;9.292;2023-02-04T12:20:53;100576.22;;;12.68;83.33
50933;BME280;36921;49.006;9.292;2023-02-04T12:23:19;100569.38;;;12.08;96.88
50933;BME280;36921;49.006;9.292;2023-02-04T12:25:44;100569.00;;;12.19;94.18
50933;BME280;36921;49.006;9.292;2023-02-04T12:28:10;100570.34;;;12.23;88.67
50933;BME280;36921;49.006;9.292;2023-02-04T12:30:35;100559.56;;;12.79;88.38
50933;BME280;36921;49.006;9.292;2023-02-04T12:33:00;100569.19;;;12.98;83.26
50933;BME280;36921;49.006;9.292;2023-02-04T12:35:26;100553.16;;;12.64;80.66
50933;BME280;36921;49.006;9.292;2023-02-04T12:37:51;100555.59;;;12.34;81.71
50933;BME280;36921;49.006;9.292;2023-02-04T12:40:18;100573.50;;;12.68;81.83
50933;BME280;36921;49.006;9.292;2023-02-04T12:42:44;100557.56;;;12.65;81.51
50933;BME280;36921;49.006;9.292;2023-02-04T12:45:11;100566.63;;;12.97;77.27
50933;BME280;36921;49.006;9.292;2023-02-04T12:47:38;100565.69;;;13.60;76.81
50933;BME280;36921;49.006;9.292;2023-02-04T12:50:04;100556.19;;;14.02;72.40
50933;BME280;36921;49.006;9.292;2023-02-04T12:52:30;100564.16;;;14.41;71.89
50933;BME280;36921;49.006;9.292;2023-02-04T12:54:55;100557.34;;;14.22;69.74
50933;BME280;36921;49.006;9.292;2023-02-04T12:57:20;100564.69;;;14.22;68.77
50933;BME280;36921;49.006;9.292;2023-02-04T12:59:46;100560.59;;;14.41;68.25
50933;BME280;36921;49.006;9.292;2023-02-04T13:02:12;100554.34;;;14.85;68.33
50933;BME280;36921;49.006;9.292;2023-02-04T13:04:38;100563.97;;;14.81;68.42
50933;BME280;36921;49.006;9.292;2023-02-04T13:07:04;100560.66;;;14.33;68.38
50933;BME280;36921;49.006;9.292;2023-02-04T13:09:32;100549.53;;;14.05;72.57
50933;BME280;36921;49.006;9.292;2023-02-04T13:11:57;100565.34;;;14.77;69.62
50933;BME280;36921;49.006;9.292;2023-02-04T13:14:22;100562.81;;;14.90;67.61